createdAt,value
2023-04-11T00:01:32.139Z,11.50
2023-04-11T00:03:59.527Z,11.60
2023-04-11T00:06:26.433Z,11.50
2023-04-11T00:08:53.644Z,11.50
2023-04-11T00:11:20.921Z,11.50
2023-04-11T00:13:48.627Z,11.50
2023-04-11T00:16:16.854Z,11.50
2023-04-11T00:18:44.778Z,11.50
2023-04-11T00:21:11.782Z,11.50
2023-04-11T00:23:39.715Z,11.60
2023-04-11T00:26:06.737Z,11.60
2023-04-11T00:28:34.038Z,11.70
2023-04-11T00:31:01.135Z,11.70
2023-04-11T00:33:27.883Z,11.60
2023-04-11T00:35:54.556Z,11.60
2023-04-11T00:38:21.296Z,11.60
2023-04-11T00:40:48.047Z,11.60
2023-04-11T00:43:14.754Z,11.60
2023-04-11T00:45:41.923Z,11.50
2023-04-11T00:48:09.092Z,11.60
2023-04-11T00:50:40.592Z,11.60
2023-04-11T00:53:08.823Z,11.50
2023-04-11T00:55:35.574Z,11.50
2023-04-11T00:58:03.029Z,11.40
2023-04-11T01:00:35.187Z,11.30
2023-04-11T01:03:02.375Z,11.20
2023-04-11T01:05:31.665Z,11.10
2023-04-11T01:07:59.133Z,11.00
2023-04-11T01:10:33.965Z,10.80
2023-04-11T01:13:01.226Z,10.80
2023-04-11T01:15:37.111Z,10.60
2023-04-11T01:18:05.593Z,10.40
2023-04-11T01:20:33.344Z,10.40
2023-04-11T01:23:02.608Z,10.30
2023-04-11T01:25:29.475Z,10.20
2023-04-11T01:27:56.544Z,10.10
2023-04-11T01:30:23.371Z,10.00
2023-04-11T01:32:50.773Z,10.00
2023-04-11T01:35:18.596Z,10.00
2023-04-11T01:37:45.562Z,10.00
2023-04-11T01:40:16.860Z,9.90
2023-04-11T01:42:44.669Z,9.70
2023-04-11T01:45:12.985Z,9.40
2023-04-11T01:47:41.652Z,9.10
2023-04-11T01:50:08.768Z,8.80
2023-04-11T01:52:35.360Z,8.70
2023-04-11T01:55:02.049Z,8.40
2023-04-11T01:57:28.884Z,8.30
2023-04-11T01:59:55.572Z,8.20
2023-04-11T02:02:22.369Z,8.20
2023-04-11T02:04:49.200Z,8.10
2023-04-11T02:07:15.840Z,8.10
2023-04-11T02:09:45.472Z,8.00
2023-04-11T02:12:12.168Z,7.90
2023-04-11T02:15:20.179Z,7.90
2023-04-11T02:17:46.872Z,7.90
2023-04-11T02:20:14.381Z,8.00
2023-04-11T02:22:41.737Z,7.90
2023-04-11T02:25:08.747Z,7.90
2023-04-11T02:27:35.699Z,7.80
2023-04-11T02:30:05.764Z,7.70
2023-04-11T02:32:37.693Z,7.60
2023-04-11T02:35:05.356Z,7.60
2023-04-11T02:37:31.987Z,7.60
2023-04-11T02:39:58.624Z,7.50
2023-04-11T02:42:31.483Z,7.50
2023-04-11T02:44:58.262Z,7.50
2023-04-11T02:47:25.266Z,7.50
2023-04-11T02:49:51.905Z,7.50
2023-04-11T02:52:19.087Z,7.50
2023-04-11T02:54:46.049Z,7.50
2023-04-11T02:57:13.077Z,7.50
2023-04-11T03:00:13.935Z,7.50
2023-04-11T03:02:41.652Z,7.60
2023-04-11T03:05:08.945Z,7.60
2023-04-11T03:07:38.394Z,7.70
2023-04-11T03:10:05.810Z,7.70
2023-04-11T03:12:40.267Z,7.70
2023-04-11T03:15:07.449Z,7.70
2023-04-11T03:17:34.599Z,7.70
2023-04-11T03:20:01.379Z,7.70
2023-04-11T03:22:28.125Z,7.70
2023-04-11T03:24:54.840Z,7.80
2023-04-11T03:27:23.751Z,7.80
2023-04-11T03:29:50.399Z,7.70
2023-04-11T03:32:17.040Z,7.70
2023-04-11T03:34:43.684Z,7.70
2023-04-11T03:37:10.350Z,7.70
2023-04-11T03:39:49.037Z,7.70
2023-04-11T03:42:16.034Z,7.70
2023-04-11T03:44:42.752Z,7.70
2023-04-11T03:47:09.468Z,7.70
2023-04-11T03:49:36.182Z,7.70
2023-04-11T03:52:20.890Z,7.70
2023-04-11T03:54:47.927Z,7.60
2023-04-11T03:57:48.335Z,7.50
2023-04-11T04:00:15.034Z,7.50
2023-04-11T04:02:42.110Z,7.50
2023-04-11T04:05:09.306Z,7.50
2023-04-11T04:07:36.627Z,7.40
2023-04-11T04:10:03.470Z,7.40
2023-04-11T04:12:30.194Z,7.30
2023-04-11T04:14:59.727Z,7.30
2023-04-11T04:17:27.438Z,7.20
2023-04-11T04:19:54.111Z,7.20
2023-04-11T04:22:22.213Z,7.20
2023-04-11T04:24:49.348Z,7.20
2023-04-11T04:27:18.148Z,7.20
2023-04-11T04:29:49.814Z,7.00
2023-04-11T04:32:24.904Z,7.00
2023-04-11T04:34:55.404Z,7.00
2023-04-11T04:37:24.293Z,7.00
2023-04-11T04:39:55.402Z,7.00
2023-04-11T04:42:48.799Z,7.00
2023-04-11T04:45:16.126Z,6.90
2023-04-11T04:47:42.816Z,6.90
2023-04-11T04:50:09.900Z,6.90
2023-04-11T04:52:36.624Z,6.80
2023-04-11T04:55:03.946Z,6.80
2023-04-11T04:57:33.405Z,6.80
2023-04-11T05:00:22.544Z,6.70
2023-04-11T05:02:49.984Z,6.70
2023-04-11T05:05:16.771Z,6.70
2023-04-11T05:07:43.518Z,6.70
2023-04-11T05:10:10.499Z,6.60
2023-04-11T05:12:37.124Z,6.60
2023-04-11T05:15:04.371Z,6.50
2023-04-11T05:17:42.958Z,6.50
2023-04-11T05:20:10.303Z,6.50
2023-04-11T05:22:38.015Z,6.50
2023-04-11T05:25:05.805Z,6.50
2023-04-11T05:27:32.518Z,6.40
2023-04-11T05:30:00.588Z,6.40
2023-04-11T05:32:27.432Z,6.40
2023-04-11T05:34:58.813Z,6.40
2023-04-11T05:37:26.320Z,6.40
2023-04-11T05:39:53.245Z,6.40
2023-04-11T05:42:20.088Z,6.40
2023-04-11T05:44:46.828Z,6.40
2023-04-11T05:47:13.708Z,6.40
2023-04-11T05:49:40.542Z,6.50
2023-04-11T05:52:07.233Z,6.50
2023-04-11T05:54:35.585Z,6.40
2023-04-11T05:57:03.296Z,6.50
2023-04-11T05:59:31.890Z,6.50
2023-04-11T06:01:59.360Z,6.50
2023-04-11T06:04:26.533Z,6.50
2023-04-11T06:09:25.027Z,6.60
2023-04-11T06:11:51.810Z,6.70
2023-04-11T06:14:18.563Z,6.70
2023-04-11T06:16:45.564Z,6.70
2023-04-11T06:19:12.466Z,6.70
2023-04-11T06:21:39.265Z,6.70
2023-04-11T06:24:09.562Z,6.80
2023-04-11T06:26:36.435Z,6.80
2023-04-11T06:29:05.282Z,6.80
2023-04-11T06:31:32.798Z,6.80
2023-04-11T06:34:00.915Z,6.90
2023-04-11T06:36:27.990Z,6.90
2023-04-11T06:38:54.735Z,6.90
2023-04-11T06:41:21.488Z,6.90
2023-04-11T06:43:48.158Z,7.00
2023-04-11T06:46:14.853Z,6.80
2023-04-11T06:48:49.820Z,6.90
2023-04-11T06:51:16.438Z,7.00
2023-04-11T06:53:43.176Z,6.90
2023-04-11T06:56:10.509Z,7.00
2023-04-11T06:58:37.151Z,7.00
2023-04-11T07:01:03.807Z,7.00
2023-04-11T07:03:31.048Z,7.10
2023-04-11T07:05:57.884Z,7.10
2023-04-11T07:08:24.585Z,7.00
2023-04-11T07:10:51.220Z,6.90
2023-04-11T07:13:17.919Z,6.80
2023-04-11T07:15:44.647Z,6.90
2023-04-11T07:18:11.412Z,7.00
2023-04-11T07:20:38.169Z,7.00
2023-04-11T07:23:34.251Z,7.10
2023-04-11T07:26:00.998Z,7.10
2023-04-11T07:28:28.886Z,7.10
2023-04-11T07:30:55.510Z,7.20
2023-04-11T07:33:22.185Z,7.10
2023-04-11T07:35:49.082Z,7.20
2023-04-11T07:38:29.523Z,7.40
2023-04-11T07:40:57.591Z,7.50
2023-04-11T07:43:25.756Z,7.70
2023-04-11T07:45:53.320Z,7.90
2023-04-11T07:48:21.875Z,8.10
2023-04-11T07:50:48.674Z,8.20
2023-04-11T07:53:15.589Z,8.20
2023-04-11T07:55:44.797Z,8.20
2023-04-11T07:58:11.407Z,8.60
2023-04-11T08:00:43.492Z,8.80
2023-04-11T08:03:13.245Z,8.60
2023-04-11T08:05:40.338Z,8.50
2023-04-11T08:08:07.408Z,8.70
2023-04-11T08:10:34.212Z,8.60
2023-04-11T08:13:01.370Z,8.80
2023-04-11T08:15:28.062Z,8.70
2023-04-11T08:17:57.899Z,8.90
2023-04-11T08:20:24.795Z,8.70
2023-04-11T08:22:51.518Z,8.80
2023-04-11T08:25:20.022Z,8.70
2023-04-11T08:27:46.786Z,8.70
2023-04-11T08:30:14.233Z,8.90
2023-04-11T08:32:42.186Z,8.80
2023-04-11T08:35:09.830Z,9.20
2023-04-11T08:37:36.514Z,9.00
2023-04-11T08:40:06.682Z,9.10
2023-04-11T08:42:34.158Z,9.10
2023-04-11T08:45:08.298Z,8.90
2023-04-11T08:47:36.346Z,8.90
2023-04-11T08:50:03.933Z,8.60
2023-04-11T08:52:31.616Z,8.60
2023-04-11T08:54:58.313Z,8.70
2023-04-11T08:57:31.496Z,8.70
2023-04-11T09:00:14.433Z,8.70
2023-04-11T09:03:02.144Z,8.80
2023-04-11T09:05:47.122Z,8.80
2023-04-11T09:08:16.009Z,8.90
2023-04-11T09:10:46.131Z,8.90
2023-04-11T09:13:28.221Z,9.00
2023-04-11T09:16:14.198Z,9.00
2023-04-11T09:18:43.311Z,8.80
2023-04-11T09:21:12.254Z,8.70
2023-04-11T09:23:39.121Z,8.70
2023-04-11T09:26:11.034Z,8.80
2023-04-11T09:28:53.612Z,8.90
2023-04-11T09:31:21.726Z,9.30
2023-04-11T09:33:59.694Z,9.20
2023-04-11T09:36:30.372Z,9.40
2023-04-11T09:38:58.028Z,9.10
2023-04-11T09:41:35.957Z,9.10
2023-04-11T09:44:02.986Z,9.20
2023-04-11T09:46:29.686Z,9.00
2023-04-11T09:48:56.676Z,8.70
2023-04-11T09:51:35.827Z,8.90
2023-04-11T09:54:04.495Z,8.80
2023-04-11T09:56:34.044Z,8.70
2023-04-11T09:59:02.222Z,8.70
2023-04-11T10:01:28.923Z,8.90
2023-04-11T10:03:56.176Z,8.90
2023-04-11T10:06:59.635Z,8.80
2023-04-11T10:09:27.592Z,9.00
2023-04-11T10:11:54.317Z,9.20
2023-04-11T10:14:42.198Z,9.20
2023-04-11T10:17:15.675Z,9.30
2023-04-11T10:19:44.494Z,9.10
2023-04-11T10:22:31.711Z,9.20
2023-04-11T10:25:18.204Z,9.20
2023-04-11T10:28:00.635Z,9.50
2023-04-11T10:30:39.699Z,9.60
2023-04-11T10:33:15.938Z,9.70
2023-04-11T10:36:05.884Z,9.30
2023-04-11T10:38:46.040Z,9.40
2023-04-11T10:41:28.132Z,9.60
2023-04-11T10:44:15.002Z,9.70
2023-04-11T10:46:46.819Z,10.00
2023-04-11T10:49:34.877Z,10.00
2023-04-11T10:52:22.217Z,10.10
2023-04-11T10:54:50.708Z,10.20
2023-04-11T10:57:17.765Z,10.30
2023-04-11T10:59:44.445Z,10.20
2023-04-11T11:02:11.765Z,10.20
2023-04-11T11:04:40.143Z,10.30
2023-04-11T11:07:12.241Z,10.30
2023-04-11T11:09:39.421Z,10.30
2023-04-11T11:12:13.871Z,10.10
2023-04-11T11:14:42.890Z,10.00
2023-04-11T11:17:11.247Z,10.00
2023-04-11T11:19:42.813Z,9.90
2023-04-11T11:22:15.727Z,10.00
2023-04-11T11:24:42.610Z,9.80
2023-04-11T11:27:22.630Z,9.80
2023-04-11T11:29:50.234Z,9.80
2023-04-11T11:32:30.133Z,9.80
2023-04-11T11:34:57.722Z,9.90
2023-04-11T11:37:24.767Z,9.90
2023-04-11T11:39:52.319Z,9.90
2023-04-11T11:42:19.357Z,10.20
2023-04-11T11:44:46.282Z,10.10
2023-04-11T11:47:16.947Z,10.40
2023-04-11T11:49:50.933Z,10.60
2023-04-11T11:52:33.601Z,10.50
2023-04-11T11:55:01.700Z,10.40
2023-04-11T11:57:28.433Z,10.40
2023-04-11T11:59:56.331Z,10.40
2023-04-11T12:02:26.912Z,10.40
2023-04-11T12:05:01.494Z,10.90
2023-04-11T12:07:34.511Z,10.80
2023-04-11T12:10:09.458Z,10.80
2023-04-11T12:12:41.096Z,10.50
2023-04-11T12:15:14.890Z,10.70
2023-04-11T12:17:41.936Z,10.80
2023-04-11T12:20:10.603Z,11.20
2023-04-11T12:22:37.812Z,11.00
2023-04-11T12:25:13.210Z,11.10
2023-04-11T12:27:42.276Z,10.80
2023-04-11T12:30:15.208Z,10.80
2023-04-11T12:32:42.805Z,11.00
2023-04-11T12:35:10.384Z,11.10
2023-04-11T12:37:37.748Z,11.20
2023-04-11T12:40:15.362Z,11.50
2023-04-11T12:44:22.954Z,11.20
2023-04-11T12:45:34.447Z,11.40
2023-04-11T12:48:01.225Z,11.30
2023-04-11T12:50:27.867Z,11.20
2023-04-11T12:52:55.661Z,11.20
2023-04-11T12:55:23.372Z,11.40
2023-04-11T12:57:50.243Z,11.50
2023-04-11T13:00:17.414Z,11.50
2023-04-11T13:02:45.556Z,11.60
2023-04-11T13:05:15.042Z,11.40
2023-04-11T13:07:44.604Z,11.40
2023-04-11T13:10:11.940Z,11.70
2023-04-11T13:12:43.804Z,11.30
2023-04-11T13:15:14.962Z,11.50
2023-04-11T13:17:41.781Z,11.70
2023-04-11T13:20:10.578Z,11.80
2023-04-11T13:22:38.765Z,11.50
2023-04-11T13:25:06.835Z,11.40
2023-04-11T13:27:34.154Z,11.30
2023-04-11T13:30:00.907Z,11.30
2023-04-11T13:32:27.743Z,11.20
2023-04-11T13:34:54.735Z,11.10
2023-04-11T13:37:24.215Z,11.20
2023-04-11T13:39:50.920Z,11.30
2023-04-11T13:42:17.654Z,11.30
2023-04-11T13:44:44.458Z,11.10
2023-04-11T13:47:11.128Z,10.80
2023-04-11T13:49:37.826Z,11.20
2023-04-11T13:52:04.452Z,11.30
2023-04-11T13:54:31.114Z,11.30
2023-04-11T13:56:58.994Z,11.40
2023-04-11T13:59:27.468Z,11.20
2023-04-11T14:01:54.318Z,11.10
2023-04-11T14:04:21.790Z,11.20
2023-04-11T14:06:48.756Z,11.30
2023-04-11T14:09:15.958Z,11.50
2023-04-11T14:11:42.630Z,11.40
2023-04-11T14:14:09.316Z,11.40
2023-04-11T14:16:36.126Z,11.70
2023-04-11T14:19:02.959Z,11.70
2023-04-11T14:21:29.751Z,11.30
2023-04-11T14:23:56.800Z,11.20
2023-04-11T14:26:23.663Z,11.20
2023-04-11T14:28:53.732Z,11.30
2023-04-11T14:31:20.547Z,11.10
2023-04-11T14:33:47.686Z,11.40
2023-04-11T14:36:14.790Z,11.10
2023-04-11T14:38:41.507Z,10.90
2023-04-11T14:41:08.237Z,11.00
2023-04-11T14:43:35.002Z,11.10
2023-04-11T14:46:01.687Z,11.10
2023-04-11T14:48:28.793Z,10.90
2023-04-11T14:50:55.560Z,11.00
2023-04-11T14:53:22.867Z,11.00
2023-04-11T14:55:49.651Z,11.10
2023-04-11T14:58:16.951Z,11.10
2023-04-11T15:00:44.659Z,10.90
2023-04-11T15:03:12.371Z,11.00
2023-04-11T15:05:39.309Z,11.10
2023-04-11T15:08:06.098Z,11.30
2023-04-11T15:10:32.890Z,11.20
2023-04-11T15:12:59.688Z,11.40
2023-04-11T15:15:26.381Z,11.40
2023-04-11T15:18:29.135Z,11.60
2023-04-11T15:20:57.629Z,11.70
2023-04-11T15:23:24.812Z,11.50
2023-04-11T15:25:56.760Z,11.50
2023-04-11T15:28:24.735Z,11.50
2023-04-11T15:30:53.349Z,11.80
2023-04-11T15:33:22.168Z,11.90
2023-04-11T15:35:48.933Z,11.90
2023-04-11T15:38:16.406Z,12.10
2023-04-11T15:40:43.616Z,12.00
2023-04-11T15:43:10.721Z,12.10
2023-04-11T15:45:39.668Z,12.20
2023-04-11T15:48:06.763Z,12.30
2023-04-11T15:50:33.577Z,12.20
2023-04-11T15:53:00.315Z,12.20
2023-04-11T15:55:27.053Z,12.10
2023-04-11T15:57:53.799Z,12.20
2023-04-11T16:00:22.454Z,12.40
2023-04-11T16:02:50.140Z,12.20
2023-04-11T16:05:17.831Z,11.80
2023-04-11T16:07:44.639Z,11.80
2023-04-11T16:10:11.449Z,11.50
2023-04-11T16:12:46.449Z,11.50
2023-04-11T16:15:13.205Z,11.50
2023-04-11T16:17:39.972Z,11.50
2023-04-11T16:20:11.245Z,11.50
2023-04-11T16:22:39.594Z,11.30
2023-04-11T16:25:07.008Z,11.40
2023-04-11T16:27:33.852Z,11.40
2023-04-11T16:30:04.887Z,11.40
2023-04-11T16:32:32.384Z,11.40
2023-04-11T16:34:59.784Z,11.50
2023-04-11T16:37:26.723Z,11.40
2023-04-11T16:39:53.498Z,11.40
2023-04-11T16:42:20.410Z,11.10
2023-04-11T16:44:47.089Z,11.00
2023-04-11T16:47:13.925Z,10.90
2023-04-11T16:49:40.751Z,10.90
2023-04-11T16:52:07.399Z,10.90
2023-04-11T16:54:34.174Z,11.00
2023-04-11T16:57:01.662Z,11.10
2023-04-11T16:59:28.442Z,11.00
2023-04-11T17:01:55.263Z,11.00
2023-04-11T17:04:22.226Z,11.00
2023-04-11T17:06:49.192Z,10.90
2023-04-11T17:09:15.977Z,10.90
2023-04-11T17:11:42.741Z,10.80
2023-04-11T17:14:10.201Z,10.80
2023-04-11T17:16:37.197Z,10.80
2023-04-11T17:19:03.973Z,10.70
2023-04-11T17:21:31.970Z,10.70
2023-04-11T17:23:58.966Z,10.60
2023-04-11T17:26:25.887Z,10.60
2023-04-11T17:28:53.181Z,10.60
2023-04-11T17:31:20.637Z,10.50
2023-04-11T17:33:47.870Z,10.40
2023-04-11T17:36:14.751Z,10.30
2023-04-11T17:38:43.257Z,10.10
2023-04-11T17:41:14.826Z,10.10
2023-04-11T17:43:42.632Z,10.00
2023-04-11T17:46:09.507Z,10.00
2023-04-11T17:48:36.762Z,9.90
2023-04-11T17:51:05.637Z,9.90
2023-04-11T17:53:33.083Z,9.80
2023-04-11T17:56:04.511Z,9.80
2023-04-11T17:58:31.903Z,9.70
2023-04-11T18:00:58.699Z,9.60
2023-04-11T18:03:26.121Z,9.50
2023-04-11T18:05:54.456Z,9.50
2023-04-11T18:08:29.882Z,9.40
2023-04-11T18:11:04.236Z,9.30
2023-04-11T18:13:31.619Z,9.20
2023-04-11T18:15:58.334Z,9.20
2023-04-11T18:18:28.024Z,9.10
2023-04-11T18:20:54.714Z,9.10
2023-04-11T18:23:21.489Z,9.10
2023-04-11T18:25:48.262Z,9.00
2023-04-11T18:28:14.968Z,9.00
2023-04-11T18:30:41.585Z,8.90
2023-04-11T18:33:09.421Z,8.80
2023-04-11T18:35:36.375Z,8.80
2023-04-11T18:38:06.177Z,8.80
2023-04-11T18:40:33.514Z,8.70
2023-04-11T18:43:00.630Z,8.70
2023-04-11T18:45:27.490Z,8.60
2023-04-11T18:47:54.257Z,8.60
2023-04-11T18:50:22.549Z,8.60
2023-04-11T18:52:54.039Z,8.60
2023-04-11T18:55:23.452Z,8.60
2023-04-11T18:57:53.785Z,8.50
2023-04-11T19:00:26.019Z,8.50
2023-04-11T19:02:53.170Z,8.50
2023-04-11T19:05:20.617Z,8.40
2023-04-11T19:07:47.461Z,8.30
2023-04-11T19:10:14.211Z,8.30
2023-04-11T19:12:41.116Z,8.20
2023-04-11T19:15:09.263Z,8.20
2023-04-11T19:17:38.273Z,8.20
2023-04-11T19:20:07.026Z,8.20
2023-04-11T19:22:34.606Z,8.10
2023-04-11T19:25:01.430Z,8.10
2023-04-11T19:27:28.190Z,8.10
2023-04-11T19:29:55.056Z,8.10
2023-04-11T19:32:21.881Z,8.10
2023-04-11T19:34:49.529Z,8.10
2023-04-11T19:37:19.231Z,8.10
2023-04-11T19:39:46.006Z,8.10
2023-04-11T19:42:12.799Z,8.00
2023-04-11T19:44:39.964Z,8.00
2023-04-11T19:47:06.698Z,7.90
2023-04-11T19:49:33.494Z,7.90
2023-04-11T19:52:00.243Z,8.00
2023-04-11T19:54:27.084Z,8.00
2023-04-11T19:56:54.132Z,8.00
2023-04-11T19:59:21.008Z,8.00
2023-04-11T20:01:47.940Z,8.00
2023-04-11T20:04:15.873Z,8.00
2023-04-11T20:06:44.019Z,8.00
2023-04-11T20:09:11.585Z,8.00
2023-04-11T20:11:39.181Z,8.00
2023-04-11T20:14:07.037Z,8.00
2023-04-11T20:16:33.869Z,8.00
2023-04-11T20:19:01.566Z,8.00
2023-04-11T20:21:28.429Z,8.10
2023-04-11T20:23:55.264Z,8.10
2023-04-11T20:26:22.412Z,8.10
2023-04-11T20:28:50.358Z,8.10
2023-04-11T20:31:17.302Z,8.00
2023-04-11T20:33:45.343Z,8.00
2023-04-11T20:36:12.112Z,8.00
2023-04-11T20:38:38.818Z,8.00
2023-04-11T20:41:06.231Z,8.00
2023-04-11T20:43:32.983Z,8.00
2023-04-11T20:45:59.725Z,8.00
2023-04-11T20:48:30.197Z,8.00
2023-04-11T20:50:56.877Z,8.00
2023-04-11T20:53:23.926Z,8.00
2023-04-11T20:55:51.444Z,7.90
2023-04-11T20:58:20.657Z,8.00
2023-04-11T21:00:47.648Z,7.90
2023-04-11T21:03:14.797Z,8.00
2023-04-11T21:05:44.295Z,7.90
2023-04-11T21:08:14.053Z,7.90
2023-04-11T21:10:40.752Z,7.90
2023-04-11T21:13:07.676Z,7.90
2023-04-11T21:15:34.869Z,8.00
2023-04-11T21:18:01.823Z,8.00
2023-04-11T21:20:28.757Z,7.90
2023-04-11T21:22:55.732Z,7.90
2023-04-11T21:25:23.771Z,7.90
2023-04-11T21:27:56.284Z,7.90
2023-04-11T21:30:23.210Z,7.90
2023-04-11T21:32:50.149Z,7.90
2023-04-11T21:35:16.903Z,7.90
2023-04-11T21:37:43.607Z,7.90
2023-04-11T21:40:10.920Z,7.90
2023-04-11T21:42:37.749Z,7.90
2023-04-11T21:45:05.782Z,7.90
2023-04-11T21:47:32.488Z,7.90
2023-04-11T21:49:59.130Z,7.80
2023-04-11T21:52:26.004Z,7.90
2023-04-11T21:54:52.701Z,7.80
2023-04-11T21:57:19.371Z,7.80
2023-04-11T21:59:46.766Z,7.80
2023-04-11T22:02:13.602Z,7.80
2023-04-11T22:04:55.925Z,7.70
2023-04-11T22:07:31.649Z,7.70
2023-04-11T22:10:09.098Z,7.80
2023-04-11T22:12:36.614Z,7.80
2023-04-11T22:15:06.485Z,7.80
2023-04-11T22:17:33.216Z,7.80
2023-04-11T22:20:00.385Z,7.80
2023-04-11T22:22:30.609Z,7.80
2023-04-11T22:25:00.127Z,7.80
2023-04-11T22:27:27.471Z,7.80
2023-04-11T22:29:57.747Z,7.80
2023-04-11T22:32:24.541Z,7.80
2023-04-11T22:34:51.767Z,7.80
2023-04-11T22:37:18.468Z,7.80
2023-04-11T22:39:45.618Z,7.70
2023-04-11T22:42:12.677Z,7.80
2023-04-11T22:44:39.481Z,7.70
2023-04-11T22:47:11.075Z,7.80
2023-04-11T22:49:41.006Z,7.80
2023-04-11T22:52:08.899Z,7.80
2023-04-11T22:54:35.665Z,7.80
2023-04-11T22:57:02.644Z,7.80
2023-04-11T22:59:29.356Z,7.80
2023-04-11T23:01:56.145Z,7.80
2023-04-11T23:04:23.484Z,7.80
2023-04-11T23:06:51.231Z,7.80
2023-04-11T23:09:18.357Z,7.80
2023-04-11T23:11:46.774Z,7.80
2023-04-11T23:14:15.265Z,7.80
2023-04-11T23:16:43.271Z,7.90
2023-04-11T23:19:10.515Z,7.90
2023-04-11T23:21:37.827Z,7.90
2023-04-11T23:24:06.612Z,7.90
2023-04-11T23:26:33.526Z,8.00
2023-04-11T23:29:02.312Z,8.00
2023-04-11T23:31:30.390Z,8.00
2023-04-11T23:33:57.435Z,8.00
2023-04-11T23:36:24.381Z,8.00
2023-04-11T23:38:51.784Z,8.00
2023-04-11T23:41:18.644Z,8.00
2023-04-11T23:43:45.589Z,8.00
2023-04-11T23:46:21.253Z,7.90
2023-04-11T23:48:47.945Z,7.90
2023-04-11T23:51:27.089Z,7.90
2023-04-11T23:53:54.074Z,7.80
2023-04-11T23:56:21.352Z,7.90
2023-04-11T23:58:47.980Z,7.80
